createdAt,value
2018-12-06T00:00:52.268Z,6.30
2018-12-06T00:03:20.563Z,6.40
2018-12-06T00:05:48.888Z,6.40
2018-12-06T00:08:18.545Z,6.40
2018-12-06T00:10:47.930Z,6.40
2018-12-06T00:13:19.014Z,6.40
2018-12-06T00:15:47.617Z,6.50
2018-12-06T00:18:16.456Z,6.40
2018-12-06T00:20:44.883Z,6.30
2018-12-06T00:23:13.162Z,6.20
2018-12-06T00:25:41.341Z,6.20
2018-12-06T00:28:09.961Z,6.10
2018-12-06T00:30:41.658Z,6.10
2018-12-06T00:33:10.373Z,6.20
2018-12-06T00:35:39.282Z,6.20
2018-12-06T00:38:07.613Z,6.20
2018-12-06T00:40:35.903Z,6.40
2018-12-06T00:43:04.340Z,6.40
2018-12-06T00:45:33.301Z,6.40
2018-12-06T00:48:01.841Z,6.40
2018-12-06T00:50:30.166Z,6.40
2018-12-06T00:53:04.882Z,6.40
2018-12-06T00:55:35.994Z,6.40
2018-12-06T00:58:04.804Z,6.40
2018-12-06T01:00:33.481Z,6.40
2018-12-06T01:03:02.498Z,6.40
2018-12-06T01:05:30.667Z,6.40
2018-12-06T01:07:58.987Z,6.40
2018-12-06T01:10:27.758Z,6.40
2018-12-06T01:12:56.016Z,6.50
2018-12-06T01:15:24.445Z,6.50
2018-12-06T01:17:53.027Z,6.60
2018-12-06T01:20:21.490Z,6.60
2018-12-06T01:22:50.187Z,6.60
2018-12-06T01:25:19.492Z,6.70
2018-12-06T01:27:47.959Z,6.60
2018-12-06T01:30:16.449Z,6.60
2018-12-06T01:32:44.981Z,6.70
2018-12-06T01:35:13.889Z,6.60
2018-12-06T01:37:42.617Z,6.60
2018-12-06T01:40:11.170Z,6.60
2018-12-06T01:42:39.654Z,6.50
2018-12-06T01:45:08.005Z,6.50
2018-12-06T01:47:36.483Z,6.40
2018-12-06T01:50:05.756Z,6.30
2018-12-06T01:52:34.131Z,6.30
2018-12-06T01:55:02.617Z,6.30
2018-12-06T01:57:31.258Z,6.30
2018-12-06T01:59:59.422Z,6.30
2018-12-06T02:02:27.810Z,6.20
2018-12-06T02:04:56.395Z,6.10
2018-12-06T02:07:25.383Z,6.10
2018-12-06T02:09:55.678Z,6.00
2018-12-06T02:12:25.578Z,5.90
2018-12-06T02:14:54.994Z,5.90
2018-12-06T02:17:23.950Z,6.00
2018-12-06T02:19:53.186Z,6.00
2018-12-06T02:22:23.367Z,6.00
2018-12-06T02:24:52.846Z,6.00
2018-12-06T02:27:22.062Z,6.10
2018-12-06T02:29:53.601Z,6.10
2018-12-06T02:32:24.008Z,6.20
2018-12-06T02:34:53.053Z,6.20
2018-12-06T02:37:22.217Z,6.30
2018-12-06T02:39:51.889Z,6.30
2018-12-06T02:42:21.394Z,6.20
2018-12-06T02:44:50.305Z,6.20
2018-12-06T02:47:19.303Z,6.30
2018-12-06T02:49:48.247Z,6.30
2018-12-06T02:52:16.648Z,6.40
2018-12-06T02:54:45.316Z,6.50
2018-12-06T02:57:13.494Z,6.50
2018-12-06T02:59:41.790Z,6.50
2018-12-06T03:02:09.979Z,6.50
2018-12-06T03:04:38.323Z,6.50
2018-12-06T03:07:06.602Z,6.50
2018-12-06T03:09:34.962Z,6.50
2018-12-06T03:12:03.597Z,6.50
2018-12-06T03:14:32.229Z,6.50
2018-12-06T03:17:00.484Z,6.60
2018-12-06T03:19:29.356Z,6.60
2018-12-06T03:21:57.507Z,6.60
2018-12-06T03:24:25.676Z,6.60
2018-12-06T03:26:54.085Z,6.60
2018-12-06T03:29:22.237Z,6.70
2018-12-06T03:31:50.485Z,6.70
2018-12-06T03:34:18.731Z,6.70
2018-12-06T03:36:47.747Z,6.60
2018-12-06T03:39:16.242Z,6.70
2018-12-06T03:41:44.584Z,6.70
2018-12-06T03:44:12.979Z,6.60
2018-12-06T03:46:41.420Z,6.60
2018-12-06T03:49:09.754Z,6.60
2018-12-06T03:51:38.239Z,6.60
2018-12-06T03:54:06.696Z,6.60
2018-12-06T03:56:35.192Z,6.60
2018-12-06T03:59:03.719Z,6.60
2018-12-06T04:01:31.961Z,6.60
2018-12-06T04:04:00.239Z,6.60
2018-12-06T04:06:28.440Z,6.60
2018-12-06T04:08:57.294Z,6.60
2018-12-06T04:11:25.671Z,6.70
2018-12-06T04:13:53.999Z,6.70
2018-12-06T04:16:22.249Z,6.80
2018-12-06T04:18:50.706Z,6.80
2018-12-06T04:21:19.192Z,8.10
2018-12-06T04:23:47.458Z,6.90
2018-12-06T04:26:15.782Z,6.90
2018-12-06T04:28:44.037Z,6.90
2018-12-06T04:31:12.774Z,6.80
2018-12-06T04:33:40.939Z,6.80
2018-12-06T04:36:10.079Z,6.80
2018-12-06T04:38:38.578Z,6.90
2018-12-06T04:41:06.892Z,6.80
2018-12-06T04:43:35.654Z,6.80
2018-12-06T04:46:03.916Z,6.80
2018-12-06T04:48:32.274Z,6.80
2018-12-06T04:51:00.949Z,6.80
2018-12-06T04:53:29.206Z,6.80
2018-12-06T04:55:57.544Z,6.80
2018-12-06T04:58:25.779Z,6.70
2018-12-06T05:00:54.093Z,6.60
2018-12-06T05:03:22.533Z,6.60
2018-12-06T05:05:51.125Z,6.50
2018-12-06T05:08:19.394Z,6.40
2018-12-06T05:10:47.605Z,6.40
2018-12-06T05:13:15.990Z,6.40
2018-12-06T05:15:44.534Z,6.30
2018-12-06T05:18:12.777Z,6.40
2018-12-06T05:20:41.318Z,6.50
2018-12-06T05:23:10.234Z,6.40
2018-12-06T05:25:39.125Z,6.50
2018-12-06T05:28:07.570Z,6.60
2018-12-06T05:30:35.922Z,6.60
2018-12-06T05:33:04.302Z,6.60
2018-12-06T05:35:32.451Z,6.60
2018-12-06T05:38:00.533Z,6.60
2018-12-06T05:40:28.740Z,6.60
2018-12-06T05:42:56.952Z,6.70
2018-12-06T05:45:25.164Z,6.70
2018-12-06T05:47:53.455Z,6.70
2018-12-06T05:50:21.703Z,6.80
2018-12-06T05:52:50.023Z,6.70
2018-12-06T05:55:18.247Z,6.80
2018-12-06T05:57:48.254Z,6.70
2018-12-06T06:00:16.978Z,6.70
2018-12-06T06:02:45.415Z,6.70
2018-12-06T06:05:13.595Z,6.70
2018-12-06T06:07:41.965Z,6.70
2018-12-06T06:10:10.301Z,6.60
2018-12-06T06:12:40.451Z,6.60
2018-12-06T06:15:09.212Z,6.70
2018-12-06T06:17:39.467Z,6.70
2018-12-06T06:20:08.017Z,6.70
2018-12-06T06:22:36.397Z,6.70
2018-12-06T06:25:05.462Z,6.80
2018-12-06T06:27:33.806Z,6.90
2018-12-06T06:30:02.169Z,6.90
2018-12-06T06:32:30.462Z,6.90
2018-12-06T06:34:59.728Z,7.50
2018-12-06T06:37:30.146Z,7.00
2018-12-06T06:39:58.401Z,6.90
2018-12-06T06:42:26.766Z,7.00
2018-12-06T06:44:54.942Z,7.00
2018-12-06T06:47:23.518Z,7.10
2018-12-06T06:49:51.869Z,7.20
2018-12-06T06:52:20.274Z,7.20
2018-12-06T06:54:49.295Z,7.20
2018-12-06T06:57:17.501Z,7.20
2018-12-06T06:59:45.779Z,7.30
2018-12-06T07:02:14.016Z,7.30
2018-12-06T07:04:42.508Z,7.30
2018-12-06T07:07:10.912Z,7.30
2018-12-06T07:09:39.336Z,7.20
2018-12-06T07:12:07.707Z,7.20
2018-12-06T07:14:35.928Z,7.20
2018-12-06T07:17:04.556Z,7.20
2018-12-06T07:19:33.126Z,7.20
2018-12-06T07:22:01.330Z,7.20
2018-12-06T07:24:29.569Z,7.20
2018-12-06T07:26:57.987Z,7.20
2018-12-06T07:29:26.526Z,7.20
2018-12-06T07:31:55.302Z,7.20
2018-12-06T07:34:23.394Z,7.20
2018-12-06T07:36:51.782Z,7.30
2018-12-06T07:39:20.315Z,7.30
2018-12-06T07:41:48.970Z,7.30
2018-12-06T07:44:17.676Z,7.30
2018-12-06T07:46:46.031Z,7.40
2018-12-06T07:49:14.475Z,7.40
2018-12-06T07:51:43.426Z,7.50
2018-12-06T07:54:11.747Z,7.50
2018-12-06T07:57:43.351Z,7.50
2018-12-06T08:00:12.296Z,7.50
2018-12-06T08:02:40.576Z,7.50
2018-12-06T08:05:08.728Z,7.50
2018-12-06T08:07:36.648Z,7.90
2018-12-06T08:10:05.982Z,7.50
2018-12-06T08:12:33.760Z,7.50
2018-12-06T08:15:01.637Z,7.60
2018-12-06T08:17:29.588Z,7.60
2018-12-06T08:19:57.582Z,7.60
2018-12-06T08:22:25.714Z,7.60
2018-12-06T08:24:53.665Z,7.60
2018-12-06T08:27:21.566Z,7.70
2018-12-06T08:29:49.561Z,7.70
2018-12-06T08:32:17.398Z,7.70
2018-12-06T08:34:45.214Z,7.80
2018-12-06T08:37:13.003Z,7.90
2018-12-06T08:39:40.831Z,8.00
2018-12-06T08:42:08.740Z,8.10
2018-12-06T08:44:36.543Z,8.20
2018-12-06T08:47:04.779Z,8.30
2018-12-06T08:49:32.776Z,8.30
2018-12-06T08:52:00.736Z,8.30
2018-12-06T08:54:28.579Z,8.40
2018-12-06T08:56:56.489Z,8.40
2018-12-06T08:59:24.522Z,8.60
2018-12-06T09:01:52.455Z,8.70
2018-12-06T09:04:20.379Z,8.80
2018-12-06T09:06:48.224Z,8.90
2018-12-06T09:09:17.199Z,9.10
2018-12-06T09:11:45.387Z,9.10
2018-12-06T09:14:14.056Z,9.30
2018-12-06T09:16:43.010Z,9.30
2018-12-06T09:19:12.241Z,9.30
2018-12-06T09:21:40.506Z,9.40
2018-12-06T09:24:08.770Z,9.50
2018-12-06T09:26:36.926Z,9.50
2018-12-06T09:29:05.128Z,9.60
2018-12-06T09:31:33.877Z,9.60
2018-12-06T09:34:06.361Z,9.70
2018-12-06T09:36:35.800Z,9.70
2018-12-06T09:39:07.323Z,9.80
2018-12-06T09:41:35.543Z,9.80
2018-12-06T09:44:04.348Z,9.90
2018-12-06T09:46:34.104Z,10.00
2018-12-06T09:49:04.078Z,10.00
2018-12-06T09:51:33.035Z,10.00
2018-12-06T09:54:01.772Z,10.10
2018-12-06T09:56:30.022Z,10.10
2018-12-06T09:58:58.688Z,10.10
2018-12-06T10:01:27.289Z,10.10
2018-12-06T10:03:55.729Z,10.10
2018-12-06T10:06:23.850Z,10.20
2018-12-06T10:08:51.977Z,10.30
2018-12-06T10:11:20.153Z,10.40
2018-12-06T10:13:48.246Z,10.60
2018-12-06T10:16:16.470Z,10.80
2018-12-06T10:18:44.811Z,11.10
2018-12-06T10:21:13.312Z,11.20
2018-12-06T10:23:41.738Z,11.20
2018-12-06T10:26:10.062Z,11.20
2018-12-06T10:28:38.279Z,11.20
2018-12-06T10:31:06.643Z,11.20
2018-12-06T10:33:34.811Z,11.20
2018-12-06T10:36:03.002Z,11.20
2018-12-06T10:38:31.119Z,11.30
2018-12-06T10:40:59.279Z,11.30
2018-12-06T10:43:27.989Z,11.30
2018-12-06T10:45:56.363Z,11.20
2018-12-06T10:48:24.645Z,11.20
2018-12-06T10:51:05.107Z,11.10
2018-12-06T10:53:33.668Z,11.00
2018-12-06T10:56:01.999Z,10.90
2018-12-06T10:58:30.226Z,10.90
2018-12-06T11:01:04.225Z,10.90
2018-12-06T11:03:37.035Z,10.80
2018-12-06T11:06:05.338Z,10.80
2018-12-06T11:08:33.510Z,10.80
2018-12-06T11:11:01.942Z,10.80
2018-12-06T11:13:30.178Z,10.80
2018-12-06T11:15:58.352Z,10.80
2018-12-06T11:18:26.878Z,10.90
2018-12-06T11:20:55.128Z,10.90
2018-12-06T11:23:23.466Z,11.00
2018-12-06T11:25:51.913Z,11.00
2018-12-06T11:28:20.324Z,11.10
2018-12-06T11:30:48.475Z,11.10
2018-12-06T11:33:16.867Z,11.10
2018-12-06T11:35:45.042Z,11.10
2018-12-06T11:38:13.577Z,11.10
2018-12-06T11:40:42.083Z,11.20
2018-12-06T11:43:10.285Z,11.20
2018-12-06T11:45:38.899Z,11.30
2018-12-06T11:48:07.313Z,11.30
2018-12-06T11:50:35.679Z,11.30
2018-12-06T11:53:04.130Z,11.40
2018-12-06T11:55:32.728Z,11.40
2018-12-06T11:58:01.136Z,11.50
2018-12-06T12:00:29.762Z,11.50
2018-12-06T12:02:58.934Z,11.60
2018-12-06T12:05:27.087Z,11.60
2018-12-06T12:07:55.361Z,11.50
2018-12-06T12:10:23.662Z,11.50
2018-12-06T12:12:51.782Z,11.50
2018-12-06T12:15:19.966Z,11.60
2018-12-06T12:17:48.127Z,11.60
2018-12-06T12:20:16.229Z,11.60
2018-12-06T12:22:44.830Z,11.60
2018-12-06T12:25:13.296Z,11.60
2018-12-06T12:27:41.953Z,11.70
2018-12-06T12:30:10.564Z,11.70
2018-12-06T12:32:38.839Z,11.90
2018-12-06T12:35:07.856Z,12.00
2018-12-06T12:37:36.105Z,12.10
2018-12-06T12:40:07.431Z,12.20
2018-12-06T12:42:35.863Z,12.20
2018-12-06T12:45:06.396Z,12.30
2018-12-06T12:47:34.615Z,12.40
2018-12-06T12:50:03.643Z,12.50
2018-12-06T12:52:31.868Z,12.50
2018-12-06T12:55:00.553Z,12.60
2018-12-06T12:57:28.722Z,12.60
2018-12-06T12:59:57.141Z,12.60
2018-12-06T13:02:25.330Z,12.50
2018-12-06T13:04:53.691Z,12.50
2018-12-06T13:07:21.940Z,12.50
2018-12-06T13:09:57.937Z,12.50
2018-12-06T13:12:26.465Z,12.50
2018-12-06T13:14:54.770Z,12.60
2018-12-06T13:17:23.158Z,12.60
2018-12-06T13:19:51.448Z,12.60
2018-12-06T13:22:19.718Z,12.60
2018-12-06T13:24:48.010Z,12.60
2018-12-06T13:27:16.562Z,12.60
2018-12-06T13:29:44.724Z,12.70
2018-12-06T13:32:13.369Z,12.60
2018-12-06T13:34:41.566Z,12.50
2018-12-06T13:37:09.851Z,12.50
2018-12-06T13:39:38.187Z,12.50
2018-12-06T13:42:06.463Z,12.40
2018-12-06T13:44:34.921Z,12.40
2018-12-06T13:47:03.546Z,12.40
2018-12-06T13:49:32.371Z,12.40
2018-12-06T13:52:00.500Z,12.40
2018-12-06T13:54:28.736Z,12.30
2018-12-06T13:56:57.132Z,12.40
2018-12-06T13:59:25.258Z,12.50
2018-12-06T14:01:53.516Z,12.50
2018-12-06T14:04:21.676Z,12.50
2018-12-06T14:06:50.258Z,12.50
2018-12-06T14:09:18.501Z,12.30
2018-12-06T14:11:46.781Z,12.20
2018-12-06T14:14:14.906Z,12.20
2018-12-06T14:16:43.176Z,12.10
2018-12-06T14:19:11.389Z,12.00
2018-12-06T14:21:39.487Z,12.00
2018-12-06T14:24:07.876Z,12.00
2018-12-06T14:26:47.223Z,12.00
2018-12-06T14:29:15.786Z,11.90
2018-12-06T14:31:44.742Z,12.00
2018-12-06T14:34:13.287Z,12.00
2018-12-06T14:36:42.728Z,11.90
2018-12-06T14:39:11.231Z,11.90
2018-12-06T14:41:39.387Z,11.90
2018-12-06T14:44:07.595Z,11.90
2018-12-06T14:46:35.727Z,11.90
2018-12-06T14:49:04.555Z,11.80
2018-12-06T14:51:33.045Z,11.70
2018-12-06T14:54:01.377Z,11.60
2018-12-06T14:56:29.572Z,11.50
2018-12-06T14:58:57.848Z,11.40
2018-12-06T15:01:26.291Z,11.20
2018-12-06T15:04:04.492Z,11.10
2018-12-06T15:06:37.573Z,11.00
2018-12-06T15:09:05.811Z,10.90
2018-12-06T15:11:34.155Z,10.90
2018-12-06T15:14:02.433Z,10.90
2018-12-06T15:16:30.829Z,10.90
2018-12-06T15:18:59.180Z,10.90
2018-12-06T15:21:27.383Z,10.90
2018-12-06T15:23:55.839Z,10.80
2018-12-06T15:26:23.945Z,10.70
2018-12-06T15:28:52.007Z,10.60
2018-12-06T15:31:20.031Z,10.50
2018-12-06T15:33:48.545Z,10.30
2018-12-06T15:36:16.739Z,10.20
2018-12-06T15:38:45.112Z,10.10
2018-12-06T15:41:13.772Z,10.00
2018-12-06T15:43:41.995Z,9.90
2018-12-06T15:46:10.433Z,9.90
2018-12-06T15:48:38.645Z,9.90
2018-12-06T15:51:15.037Z,9.80
2018-12-06T15:53:43.200Z,9.80
2018-12-06T15:56:11.349Z,9.80
2018-12-06T15:58:39.564Z,9.90
2018-12-06T16:01:07.665Z,9.80
2018-12-06T16:03:35.821Z,9.90
2018-12-06T16:06:05.489Z,10.00
2018-12-06T16:09:07.997Z,10.10
2018-12-06T16:11:36.329Z,10.30
2018-12-06T16:14:04.836Z,10.30
2018-12-06T16:16:33.057Z,10.40
2018-12-06T16:19:01.388Z,10.50
2018-12-06T16:21:30.034Z,10.50
2018-12-06T16:23:58.548Z,10.60
2018-12-06T16:26:26.965Z,10.60
2018-12-06T16:28:55.537Z,10.60
2018-12-06T16:31:23.979Z,10.60
2018-12-06T16:33:52.148Z,10.60
2018-12-06T16:36:20.281Z,10.70
2018-12-06T16:38:48.687Z,10.70
2018-12-06T16:41:17.081Z,10.70
2018-12-06T16:43:45.599Z,10.70
2018-12-06T16:46:13.916Z,10.70
2018-12-06T16:48:42.479Z,10.70
2018-12-06T16:51:20.810Z,10.60
2018-12-06T16:53:49.624Z,10.50
2018-12-06T16:56:18.143Z,10.40
2018-12-06T16:58:46.844Z,10.30
2018-12-06T17:01:15.468Z,10.10
2018-12-06T17:03:44.675Z,10.10
2018-12-06T17:06:13.737Z,10.10
2018-12-06T17:08:42.344Z,10.10
2018-12-06T17:11:10.950Z,10.00
2018-12-06T17:13:39.468Z,10.00
2018-12-06T17:16:07.969Z,9.80
2018-12-06T17:18:37.065Z,9.90
2018-12-06T17:21:05.634Z,9.90
2018-12-06T17:23:34.651Z,9.90
2018-12-06T17:26:03.845Z,9.90
2018-12-06T17:28:32.041Z,10.00
2018-12-06T17:31:00.326Z,10.00
2018-12-06T17:33:29.010Z,10.10
2018-12-06T17:35:59.916Z,10.20
2018-12-06T17:38:42.718Z,10.30
2018-12-06T17:41:11.978Z,10.40
2018-12-06T17:43:40.342Z,10.30
2018-12-06T17:46:09.978Z,10.30
2018-12-06T17:48:38.368Z,10.40
2018-12-06T17:51:07.076Z,10.40
2018-12-06T17:53:35.680Z,10.40
2018-12-06T17:56:04.105Z,10.40
2018-12-06T17:58:32.855Z,10.40
2018-12-06T18:01:01.108Z,10.50
2018-12-06T18:03:29.317Z,10.60
2018-12-06T18:05:57.816Z,10.70
2018-12-06T18:08:26.597Z,10.70
2018-12-06T18:10:55.008Z,10.80
2018-12-06T18:13:23.207Z,10.80
2018-12-06T18:15:51.955Z,10.70
2018-12-06T18:18:20.343Z,10.80
2018-12-06T18:20:48.781Z,10.80
2018-12-06T18:23:17.340Z,10.90
2018-12-06T18:25:46.538Z,10.90
2018-12-06T18:28:14.900Z,10.90
2018-12-06T18:30:43.447Z,10.90
2018-12-06T18:33:12.523Z,11.00
2018-12-06T18:35:41.020Z,11.00
2018-12-06T18:38:09.354Z,11.10
2018-12-06T18:40:37.861Z,11.10
2018-12-06T18:43:06.553Z,11.10
2018-12-06T18:45:35.472Z,11.10
2018-12-06T18:48:03.942Z,11.10
2018-12-06T18:50:32.140Z,11.10
2018-12-06T18:53:00.331Z,11.10
2018-12-06T18:55:29.144Z,11.00
2018-12-06T18:57:58.087Z,11.10
2018-12-06T19:00:26.605Z,11.10
2018-12-06T19:02:55.131Z,11.20
2018-12-06T19:05:23.421Z,11.10
2018-12-06T19:07:51.560Z,11.10
2018-12-06T19:10:20.177Z,11.10
2018-12-06T19:12:48.802Z,11.10
2018-12-06T19:15:17.093Z,11.10
2018-12-06T19:17:45.454Z,11.00
2018-12-06T19:20:14.086Z,11.00
2018-12-06T19:22:42.264Z,11.10
2018-12-06T19:25:10.488Z,11.20
2018-12-06T19:27:38.773Z,11.20
2018-12-06T19:30:10.202Z,11.20
2018-12-06T19:32:38.914Z,11.20
2018-12-06T19:35:07.727Z,11.30
2018-12-06T19:37:36.483Z,11.30
2018-12-06T19:40:05.907Z,11.20
2018-12-06T19:42:38.766Z,11.30
2018-12-06T19:45:05.898Z,11.30
2018-12-06T19:47:34.419Z,11.30
2018-12-06T19:50:02.707Z,11.30
2018-12-06T19:52:31.079Z,11.40
2018-12-06T19:54:59.501Z,11.40
2018-12-06T19:57:28.990Z,11.40
2018-12-06T19:59:57.923Z,11.40
2018-12-06T20:02:26.179Z,11.40
2018-12-06T20:04:54.805Z,11.30
2018-12-06T20:07:23.524Z,11.20
2018-12-06T20:09:52.305Z,11.20
2018-12-06T20:12:20.637Z,11.20
2018-12-06T20:14:49.364Z,11.10
2018-12-06T20:17:17.482Z,11.20
2018-12-06T20:19:46.181Z,11.20
2018-12-06T20:22:14.902Z,11.30
2018-12-06T20:24:48.195Z,11.30
2018-12-06T20:27:16.443Z,11.30
2018-12-06T20:29:45.097Z,11.30
2018-12-06T20:32:14.865Z,11.40
2018-12-06T20:34:47.097Z,11.40
2018-12-06T20:37:15.909Z,11.40
2018-12-06T20:39:44.608Z,11.50
2018-12-06T20:42:13.260Z,11.40
2018-12-06T20:44:42.415Z,11.40
2018-12-06T20:47:15.935Z,11.40
2018-12-06T20:49:44.684Z,11.50
2018-12-06T20:52:13.669Z,11.40
2018-12-06T20:54:42.312Z,11.40
2018-12-06T20:57:11.278Z,11.50
2018-12-06T20:59:39.625Z,11.40
2018-12-06T21:02:08.165Z,11.40
2018-12-06T21:04:37.052Z,11.40
2018-12-06T21:07:06.537Z,11.40
2018-12-06T21:09:34.930Z,11.40
2018-12-06T21:12:03.367Z,11.40
2018-12-06T21:14:31.577Z,11.50
2018-12-06T21:16:59.795Z,11.40
2018-12-06T21:19:29.262Z,11.40
2018-12-06T21:21:57.620Z,11.50
2018-12-06T21:24:25.889Z,11.50
2018-12-06T21:26:54.167Z,11.40
2018-12-06T21:29:22.474Z,11.40
2018-12-06T21:31:51.143Z,11.40
2018-12-06T21:34:19.695Z,11.40
2018-12-06T21:36:49.350Z,11.40
2018-12-06T21:39:17.935Z,11.30
2018-12-06T21:41:46.129Z,11.30
2018-12-06T21:44:14.481Z,11.30
2018-12-06T21:46:43.706Z,11.30
2018-12-06T21:49:12.536Z,11.30
2018-12-06T21:51:40.784Z,11.40
2018-12-06T21:54:09.750Z,11.40
2018-12-06T21:56:38.380Z,11.40
2018-12-06T21:59:06.693Z,11.40
2018-12-06T22:01:35.359Z,11.40
2018-12-06T22:04:03.729Z,11.40
2018-12-06T22:06:32.558Z,11.40
2018-12-06T22:09:01.195Z,11.40
2018-12-06T22:11:29.486Z,11.40
2018-12-06T22:13:57.658Z,11.40
2018-12-06T22:16:26.246Z,11.40
2018-12-06T22:18:55.127Z,11.40
2018-12-06T22:21:23.354Z,11.50
2018-12-06T22:23:51.778Z,11.50
2018-12-06T22:26:20.035Z,11.50
2018-12-06T22:28:48.735Z,11.50
2018-12-06T22:31:17.424Z,11.50
2018-12-06T22:33:45.646Z,11.50
2018-12-06T22:36:14.076Z,11.50
2018-12-06T22:38:42.680Z,11.50
2018-12-06T22:41:11.066Z,11.50
2018-12-06T22:43:39.496Z,11.60
2018-12-06T22:46:07.731Z,11.70
2018-12-06T22:48:36.734Z,11.70
2018-12-06T22:51:05.700Z,11.70
2018-12-06T22:53:34.323Z,11.70
2018-12-06T22:56:02.721Z,11.80
2018-12-06T22:58:30.861Z,11.80
2018-12-06T23:01:00.839Z,11.80
2018-12-06T23:03:29.151Z,11.80
2018-12-06T23:05:58.915Z,11.80
2018-12-06T23:08:27.364Z,11.80
2018-12-06T23:10:55.877Z,11.80
2018-12-06T23:13:24.148Z,11.80
2018-12-06T23:15:52.368Z,11.80
2018-12-06T23:18:21.142Z,11.80
2018-12-06T23:20:50.002Z,11.80
2018-12-06T23:23:19.339Z,11.80
2018-12-06T23:25:48.020Z,11.90
2018-12-06T23:28:16.752Z,11.80
2018-12-06T23:30:45.248Z,11.80
2018-12-06T23:33:14.825Z,11.80
2018-12-06T23:35:43.470Z,11.80
2018-12-06T23:38:11.991Z,11.80
2018-12-06T23:40:42.208Z,11.80
2018-12-06T23:43:10.598Z,11.80
2018-12-06T23:45:38.857Z,11.80
2018-12-06T23:48:07.072Z,11.80
2018-12-06T23:50:35.739Z,11.80
2018-12-06T23:53:04.535Z,11.80
2018-12-06T23:55:33.514Z,11.80
2018-12-06T23:58:02.094Z,11.90
